Time;durP1;ratioP1;P1;durP2;ratioP2;P2;SDS_P1;SDS_P2;PMS_P1;PMS_P2;Temp;Humidity;BMP_temperature;BMP_pressure;BME280_temperature;BME280_humidity;BME280_pressure;Samples;Min_cycle;Max_cycle;Signal;HPM_P1;HPM_P2
2022/01/08 00:00:48;;;;;;;5.13;4.13;;;;;;;;;;4925206;29;20233;-92
2022/01/08 00:03:18;;;;;;;5.63;4.10;;;;;;;;;;4926015;29;20702;-93
2022/01/08 00:05:48;;;;;;;6.90;5.13;;;;;;;;;;4926139;29;20230;-92
2022/01/08 00:08:15;;;;;;;6.77;4.33;;;;;;;;;;4925902;29;20214;-93
2022/01/08 00:10:44;;;;;;;4.47;3.50;;;;;;;;;;4925253;29;20266;-92
2022/01/08 00:13:13;;;;;;;5.33;4.43;;;;;;;;;;4926884;29;20207;-93
2022/01/08 00:15:40;;;;;;;7.50;5.67;;;;;;;;;;4931819;29;20238;-92
2022/01/08 00:18:08;;;;;;;6.60;5.57;;;;;;;;;;4923900;29;20290;-92
2022/01/08 00:20:36;;;;;;;5.70;4.30;;;;;;;;;;4918286;29;20286;-92
2022/01/08 00:23:07;;;;;;;3.87;3.40;;;;;;;;;;4918683;29;20301;-92
2022/01/08 00:25:34;;;;;;;4.83;3.50;;;;;;;;;;4918263;29;20229;-93
2022/01/08 00:28:02;;;;;;;5.27;3.50;;;;;;;;;;4918358;29;20668;-92
2022/01/08 00:30:31;;;;;;;3.37;2.90;;;;;;;;;;4918661;29;20309;-93
2022/01/08 00:32:59;;;;;;;3.40;3.10;;;;;;;;;;4918236;29;20214;-92
2022/01/08 00:35:26;;;;;;;16.43;6.77;;;;;;;;;;4918018;29;20227;-92
2022/01/08 00:37:53;;;;;;;7.63;4.67;;;;;;;;;;4918140;29;20211;-92
2022/01/08 00:40:21;;;;;;;6.93;4.00;;;;;;;;;;4918171;29;20226;-92
2022/01/08 00:42:48;;;;;;;7.90;4.73;;;;;;;;;;4918194;29;20214;-92
2022/01/08 00:45:16;;;;;;;4.97;3.67;;;;;;;;;;4917742;29;20238;-93
2022/01/08 00:47:45;;;;;;;7.10;4.37;;;;;;;;;;4918103;29;20215;-92
2022/01/08 00:50:12;;;;;;;6.17;3.70;;;;;;;;;;4917864;29;20206;-92
2022/01/08 00:52:40;;;;;;;5.63;4.33;;;;;;;;;;4917966;29;20600;-92
2022/01/08 00:55:08;;;;;;;10.43;5.90;;;;;;;;;;4917804;29;20238;-92
2022/01/08 00:57:35;;;;;;;13.83;6.50;;;;;;;;;;4917786;29;20221;-92
2022/01/08 01:00:02;;;;;;;7.47;5.07;;;;;;;;;;4917451;29;20223;-92
2022/01/08 01:02:30;;;;;;;9.13;4.37;;;;;;;;;;4917570;29;20529;-92
2022/01/08 01:04:58;;;;;;;8.73;5.20;;;;;;;;;;4917521;29;20226;-92
2022/01/08 01:07:26;;;;;;;5.27;4.37;;;;;;;;;;4917383;29;20266;-92
2022/01/08 01:09:53;;;;;;;6.77;4.50;;;;;;;;;;4917661;29;20274;-92
2022/01/08 01:12:20;;;;;;;9.13;5.90;;;;;;;;;;4917722;29;20218;-92
2022/01/08 01:14:48;;;;;;;5.90;4.20;;;;;;;;;;4917573;29;20299;-92
2022/01/08 01:17:15;;;;;;;8.70;5.53;;;;;;;;;;4917753;29;20289;-93
2022/01/08 01:19:43;;;;;;;5.53;3.77;;;;;;;;;;4917921;29;20210;-92
2022/01/08 01:22:15;;;;;;;8.30;5.73;;;;;;;;;;4916986;29;20259;-92
2022/01/08 01:24:42;;;;;;;9.23;5.43;;;;;;;;;;4916856;29;20231;-92
2022/01/08 01:27:36;;;;;;;7.33;4.60;;;;;;;;;;4916663;29;20214;-93
2022/01/08 01:30:08;;;;;;;5.10;4.03;;;;;;;;;;4917321;29;20271;-91
2022/01/08 01:47:00;;;;;;;7.07;4.80;;;;;;;;;;4916931;29;20650;-92
2022/01/08 01:49:11;;;;;;;3.50;2.63;;;;;;;;;;4916828;29;20314;-93
2022/01/08 01:51:38;;;;;;;3.03;1.70;;;;;;;;;;4917361;29;20202;-93
2022/01/08 01:54:07;;;;;;;3.67;1.67;;;;;;;;;;4916840;29;20218;-93
2022/01/08 01:56:34;;;;;;;3.97;1.90;;;;;;;;;;4917400;29;20219;-91
2022/01/08 01:59:02;;;;;;;2.07;1.80;;;;;;;;;;4916945;29;20611;-91
2022/01/08 02:01:29;;;;;;;2.50;1.50;;;;;;;;;;4916438;29;20230;-92
2022/01/08 02:03:56;;;;;;;1.27;1.17;;;;;;;;;;4916303;29;20748;-91
2022/01/08 02:06:24;;;;;;;2.13;1.83;;;;;;;;;;4916767;29;20652;-92
2022/01/08 02:08:51;;;;;;;1.73;1.33;;;;;;;;;;4917126;29;20247;-93
2022/01/08 02:11:20;;;;;;;2.20;1.60;;;;;;;;;;4916622;29;20210;-93
2022/01/08 02:13:48;;;;;;;2.43;1.70;;;;;;;;;;4917192;29;20244;-93
2022/01/08 02:16:17;;;;;;;2.60;1.93;;;;;;;;;;4916513;29;20238;-93
2022/01/08 02:18:45;;;;;;;3.50;1.73;;;;;;;;;;4916918;29;20301;-93
2022/01/08 02:21:14;;;;;;;2.97;2.20;;;;;;;;;;4916918;29;20295;-94
2022/01/08 02:23:41;;;;;;;2.70;2.13;;;;;;;;;;4916401;29;20279;-93
2022/01/08 02:26:09;;;;;;;2.50;1.87;;;;;;;;;;4916630;29;20760;-93
2022/01/08 02:28:38;;;;;;;2.33;1.60;;;;;;;;;;4916193;29;20215;-93
2022/01/08 02:31:05;;;;;;;1.90;1.80;;;;;;;;;;4916729;29;20281;-93
2022/01/08 02:33:33;;;;;;;1.77;1.67;;;;;;;;;;4916526;29;20217;-93
2022/01/08 02:36:05;;;;;;;1.70;1.60;;;;;;;;;;4916738;29;20590;-93
2022/01/08 02:38:34;;;;;;;2.33;1.90;;;;;;;;;;4918138;29;20266;-93
2022/01/08 02:41:02;;;;;;;3.30;2.13;;;;;;;;;;4920551;29;20231;-93
2022/01/08 02:43:33;;;;;;;4.50;1.80;;;;;;;;;;4920761;29;20210;-93
2022/01/08 02:46:00;;;;;;;2.00;1.90;;;;;;;;;;4920524;29;20234;-93
2022/01/08 02:48:27;;;;;;;3.07;2.00;;;;;;;;;;4920237;29;20281;-93
2022/01/08 02:50:55;;;;;;;2.10;1.90;;;;;;;;;;4920371;29;20270;-93
2022/01/08 02:53:22;;;;;;;2.67;2.13;;;;;;;;;;4920134;29;20210;-93
2022/01/08 02:55:51;;;;;;;3.83;2.03;;;;;;;;;;4920043;29;20233;-92
2022/01/08 02:58:19;;;;;;;5.00;2.40;;;;;;;;;;4920149;29;20242;-93
2022/01/08 03:00:46;;;;;;;4.53;2.13;;;;;;;;;;4920169;29;20286;-93
2022/01/08 03:03:14;;;;;;;3.43;2.27;;;;;;;;;;4920237;29;20277;-93
2022/01/08 03:05:42;;;;;;;3.20;2.03;;;;;;;;;;4919795;29;20261;-93
2022/01/08 03:08:10;;;;;;;3.60;2.23;;;;;;;;;;4919892;29;20237;-93
2022/01/08 03:10:37;;;;;;;2.00;1.90;;;;;;;;;;4920098;29;20230;-93
2022/01/08 03:13:06;;;;;;;1.93;1.70;;;;;;;;;;4919497;29;20262;-93
2022/01/08 03:15:35;;;;;;;2.53;2.00;;;;;;;;;;4919221;29;20712;-93
2022/01/08 03:18:02;;;;;;;3.20;1.73;;;;;;;;;;4919758;29;20293;-93
2022/01/08 03:20:30;;;;;;;1.50;1.40;;;;;;;;;;4919976;29;20258;-92
2022/01/08 03:23:02;;;;;;;1.50;1.40;;;;;;;;;;4919972;29;20275;-93
2022/01/08 03:25:30;;;;;;;2.17;1.43;;;;;;;;;;4920075;29;20230;-93
2022/01/08 03:27:57;;;;;;;1.67;1.40;;;;;;;;;;4919814;29;20218;-93
2022/01/08 03:30:28;;;;;;;1.80;1.60;;;;;;;;;;4919274;29;20933;-93
2022/01/08 03:32:55;;;;;;;5.17;1.90;;;;;;;;;;4919628;29;20297;-93
2022/01/08 03:35:22;;;;;;;1.40;1.30;;;;;;;;;;4919980;29;20238;-93
2022/01/08 03:37:50;;;;;;;1.80;1.70;;;;;;;;;;4919658;29;20266;-93
2022/01/08 03:40:17;;;;;;;1.77;1.50;;;;;;;;;;4919544;29;20580;-93
2022/01/08 03:42:45;;;;;;;1.50;1.40;;;;;;;;;;4919366;29;20234;-93
2022/01/08 03:45:12;;;;;;;2.93;1.50;;;;;;;;;;4919513;29;20759;-93
2022/01/08 03:48:06;;;;;;;2.77;1.67;;;;;;;;;;4919575;29;20211;-93
2022/01/08 03:50:34;;;;;;;1.70;1.50;;;;;;;;;;4918902;29;20215;-93
2022/01/08 03:53:01;;;;;;;1.97;1.40;;;;;;;;;;4919313;29;20226;-93
2022/01/08 03:55:28;;;;;;;4.50;1.50;;;;;;;;;;4919102;29;20734;-93
2022/01/08 03:57:56;;;;;;;1.50;1.40;;;;;;;;;;4918469;29;20213;-93
2022/01/08 04:00:23;;;;;;;1.40;1.30;;;;;;;;;;4919158;29;20215;-93
2022/01/08 04:02:53;;;;;;;0.90;0.80;;;;;;;;;;4918626;29;20231;-94
2022/01/08 04:05:20;;;;;;;2.53;1.80;;;;;;;;;;4918842;29;20239;-93
2022/01/08 04:07:48;;;;;;;1.77;1.30;;;;;;;;;;4918935;29;20270;-93
2022/01/08 04:10:16;;;;;;;1.23;1.13;;;;;;;;;;4918426;29;20239;-93
2022/01/08 04:12:47;;;;;;;2.03;1.07;;;;;;;;;;4918977;29;20218;-93
2022/01/08 04:15:33;;;;;;;1.00;1.00;;;;;;;;;;4918976;29;20234;-93
2022/01/08 04:18:02;;;;;;;1.03;0.83;;;;;;;;;;4918931;29;20202;-93
2022/01/08 04:20:29;;;;;;;1.63;0.90;;;;;;;;;;4918798;29;20558;-94
2022/01/08 04:22:56;;;;;;;1.00;1.00;;;;;;;;;;4918518;29;20226;-93
2022/01/08 04:25:25;;;;;;;0.70;0.70;;;;;;;;;;4918312;29;20647;-93
2022/01/08 04:27:52;;;;;;;0.80;0.80;;;;;;;;;;4918313;29;20293;-93
2022/01/08 04:30:19;;;;;;;0.60;0.60;;;;;;;;;;4918349;29;20302;-93
2022/01/08 04:32:47;;;;;;;0.53;0.53;;;;;;;;;;4918542;29;20210;-94
2022/01/08 04:35:16;;;;;;;2.00;0.80;;;;;;;;;;4918295;29;20234;-94
2022/01/08 04:37:43;;;;;;;0.50;0.50;;;;;;;;;;4918636;29;20274;-93
2022/01/08 04:40:11;;;;;;;1.07;0.63;;;;;;;;;;4918429;29;20215;-93
2022/01/08 04:42:38;;;;;;;1.27;0.50;;;;;;;;;;4918123;29;20222;-93
2022/01/08 04:45:06;;;;;;;0.93;0.57;;;;;;;;;;4918543;29;20305;-93
2022/01/08 04:47:33;;;;;;;0.60;0.60;;;;;;;;;;4918184;29;20219;-93
2022/01/08 04:50:01;;;;;;;0.50;0.50;;;;;;;;;;4918255;29;20214;-93
2022/01/08 04:52:29;;;;;;;0.40;0.40;;;;;;;;;;4917775;29;20217;-93
2022/01/08 04:54:57;;;;;;;1.27;0.40;;;;;;;;;;4918182;29;20234;-93
2022/01/08 04:57:24;;;;;;;0.93;0.60;;;;;;;;;;4918080;29;20206;-93
2022/01/08 04:59:51;;;;;;;0.23;0.23;;;;;;;;;;4918079;29;20274;-93
2022/01/08 05:02:19;;;;;;;0.80;0.37;;;;;;;;;;4917261;29;20219;-93
2022/01/08 05:04:46;;;;;;;0.40;0.40;;;;;;;;;;4918176;29;20234;-92
2022/01/08 05:07:13;;;;;;;0.50;0.50;;;;;;;;;;4918187;29;20672;-93
2022/01/08 05:09:42;;;;;;;3.40;0.40;;;;;;;;;;4918182;29;20282;-93
2022/01/08 05:12:10;;;;;;;0.50;0.50;;;;;;;;;;4917865;29;20290;-93
2022/01/08 05:14:37;;;;;;;0.67;0.40;;;;;;;;;;4917716;29;20294;-93
2022/01/08 05:17:04;;;;;;;0.97;0.40;;;;;;;;;;4917904;29;20217;-93
2022/01/08 05:19:43;;;;;;;0.33;0.30;;;;;;;;;;4917590;29;20660;-93
2022/01/08 05:22:18;;;;;;;0.30;0.30;;;;;;;;;;4917401;29;20230;-93
2022/01/08 05:24:47;;;;;;;0.97;0.53;;;;;;;;;;4917972;29;20317;-93
2022/01/08 05:27:17;;;;;;;0.47;0.40;;;;;;;;;;4917642;29;20584;-93
2022/01/08 05:29:44;;;;;;;0.60;0.60;;;;;;;;;;4917939;29;20318;-93
2022/01/08 05:32:16;;;;;;;0.23;0.23;;;;;;;;;;4917666;29;20660;-93
2022/01/08 05:34:44;;;;;;;1.33;0.30;;;;;;;;;;4917627;29;20234;-93
2022/01/08 05:37:12;;;;;;;0.60;0.30;;;;;;;;;;4918001;29;20626;-93
2022/01/08 05:39:40;;;;;;;1.40;0.57;;;;;;;;;;4917641;29;20246;-93
2022/01/08 05:42:09;;;;;;;1.03;0.50;;;;;;;;;;4917973;29;20294;-93
2022/01/08 05:44:36;;;;;;;0.37;0.30;;;;;;;;;;4918398;29;20695;-93
2022/01/08 05:47:04;;;;;;;1.00;0.40;;;;;;;;;;4924739;29;20659;-93
2022/01/08 05:49:31;;;;;;;0.30;0.30;;;;;;;;;;4922417;29;20210;-93
2022/01/08 05:51:59;;;;;;;0.30;0.30;;;;;;;;;;4920878;29;20207;-93
2022/01/08 05:54:26;;;;;;;0.90;0.40;;;;;;;;;;4920268;29;20234;-93
2022/01/08 05:56:56;;;;;;;0.40;0.40;;;;;;;;;;4922900;29;20210;-93
2022/01/08 05:59:26;;;;;;;0.27;0.20;;;;;;;;;;4923441;29;20295;-93
2022/01/08 06:01:54;;;;;;;0.63;0.53;;;;;;;;;;4920226;29;20222;-94
2022/01/08 06:04:21;;;;;;;1.50;0.30;;;;;;;;;;4925996;29;20242;-94
2022/01/08 06:06:48;;;;;;;0.20;0.20;;;;;;;;;;4931612;29;20242;-95
2022/01/08 06:09:16;;;;;;;0.30;0.20;;;;;;;;;;4930889;29;20214;-95
2022/01/08 06:11:43;;;;;;;0.20;0.20;;;;;;;;;;4933950;29;20243;-94
2022/01/08 06:14:21;;;;;;;1.60;0.30;;;;;;;;;;4928872;29;20242;-95
2022/01/08 06:16:50;;;;;;;0.23;0.23;;;;;;;;;;4925071;29;20206;-94
2022/01/08 06:19:20;;;;;;;0.43;0.43;;;;;;;;;;4926126;29;20206;-95
2022/01/08 06:21:47;;;;;;;1.27;0.60;;;;;;;;;;4926127;29;20241;-94
2022/01/08 06:24:15;;;;;;;0.50;0.50;;;;;;;;;;4924673;29;20215;-94
2022/01/08 06:26:42;;;;;;;0.60;0.40;;;;;;;;;;4921541;29;20214;-94
2022/01/08 06:29:10;;;;;;;0.27;0.27;;;;;;;;;;4918446;29;20214;-92
2022/01/08 06:31:37;;;;;;;0.83;0.50;;;;;;;;;;4918042;29;20206;-92
2022/01/08 06:34:06;;;;;;;0.30;0.30;;;;;;;;;;4917568;29;20301;-95
2022/01/08 06:36:33;;;;;;;0.20;0.20;;;;;;;;;;4917765;29;20218;-92
2022/01/08 06:39:01;;;;;;;0.43;0.40;;;;;;;;;;4918353;29;20210;-93
2022/01/08 06:41:29;;;;;;;0.17;0.17;;;;;;;;;;4917540;29;20210;-93
2022/01/08 06:43:57;;;;;;;0.20;0.20;;;;;;;;;;4917891;29;20744;-93
2022/01/08 06:46:24;;;;;;;0.40;0.40;;;;;;;;;;4917568;29;20211;-93
2022/01/08 06:48:52;;;;;;;0.13;0.13;;;;;;;;;;4902308;29;20209;-93
2022/01/08 06:51:21;;;;;;;0.37;0.20;;;;;;;;;;4917742;29;20760;-92
2022/01/08 06:53:48;;;;;;;0.23;0.23;;;;;;;;;;4918776;29;20211;-92
2022/01/08 06:56:17;;;;;;;0.10;0.10;;;;;;;;;;4917473;29;20268;-93
2022/01/08 06:58:45;;;;;;;0.10;0.10;;;;;;;;;;4917973;29;20215;-92
2022/01/08 07:01:12;;;;;;;0.93;0.60;;;;;;;;;;4918183;29;20243;-93
2022/01/08 07:03:40;;;;;;;0.33;0.33;;;;;;;;;;4918135;29;20235;-93
2022/01/08 07:06:07;;;;;;;0.20;0.20;;;;;;;;;;4917943;29;20234;-93
2022/01/08 07:08:36;;;;;;;2.00;0.30;;;;;;;;;;4919035;29;20213;-93
2022/01/08 07:11:03;;;;;;;0.40;0.40;;;;;;;;;;4922732;29;20237;-93
2022/01/08 07:13:31;;;;;;;0.30;0.30;;;;;;;;;;4928060;29;20213;-93
2022/01/08 07:15:58;;;;;;;0.20;0.20;;;;;;;;;;4919381;29;20285;-93
2022/01/08 07:18:38;;;;;;;0.30;0.30;;;;;;;;;;4917446;29;20215;-94
2022/01/08 07:21:20;;;;;;;1.27;0.20;;;;;;;;;;4918041;29;20218;-94
2022/01/08 07:26:38;;;;;;;0.40;0.40;;;;;;;;;;4917168;29;20210;-93
2022/01/08 07:29:05;;;;;;;1.70;0.40;;;;;;;;;;4919511;29;20316;-92
2022/01/08 07:31:33;;;;;;;0.30;0.30;;;;;;;;;;4919772;29;20214;-93
2022/01/08 07:34:00;;;;;;;0.57;0.57;;;;;;;;;;4919488;29;20218;-92
2022/01/08 07:36:28;;;;;;;0.17;0.17;;;;;;;;;;4919238;29;20301;-93
2022/01/08 07:38:57;;;;;;;0.70;0.47;;;;;;;;;;4919799;29;20306;-93
2022/01/08 07:41:24;;;;;;;0.30;0.30;;;;;;;;;;4919668;29;20203;-92
2022/01/08 07:43:52;;;;;;;0.30;0.30;;;;;;;;;;4919134;29;20735;-93
2022/01/08 07:46:19;;;;;;;1.90;0.60;;;;;;;;;;4918989;29;20294;-93
2022/01/08 07:48:46;;;;;;;3.60;0.70;;;;;;;;;;4919039;29;20607;-93
2022/01/08 07:51:14;;;;;;;0.60;0.60;;;;;;;;;;4919706;29;20218;-93
2022/01/08 07:53:41;;;;;;;0.70;0.70;;;;;;;;;;4919751;29;20210;-92
2022/01/08 07:56:10;;;;;;;1.40;0.83;;;;;;;;;;4918887;29;20233;-93
2022/01/08 07:58:38;;;;;;;0.80;0.80;;;;;;;;;;4918687;29;20211;-92
2022/01/08 08:01:05;;;;;;;0.77;0.77;;;;;;;;;;4918505;29;20215;-92
2022/01/08 08:03:32;;;;;;;0.90;0.90;;;;;;;;;;4918965;29;20233;-93
2022/01/08 08:06:00;;;;;;;1.13;0.97;;;;;;;;;;4919045;29;20226;-93
2022/01/08 08:08:33;;;;;;;1.43;0.80;;;;;;;;;;4919136;29;20206;-93
2022/01/08 08:11:01;;;;;;;1.27;1.00;;;;;;;;;;4919091;29;20199;-92
2022/01/08 08:13:29;;;;;;;1.57;0.90;;;;;;;;;;4918839;29;20207;-92
2022/01/08 08:15:57;;;;;;;0.63;0.63;;;;;;;;;;4918830;29;20262;-92
2022/01/08 08:18:26;;;;;;;1.10;1.00;;;;;;;;;;4919274;29;20226;-94
2022/01/08 08:20:54;;;;;;;1.07;1.00;;;;;;;;;;4919306;29;20214;-93
2022/01/08 08:23:21;;;;;;;1.80;0.90;;;;;;;;;;4919905;29;20229;-93
2022/01/08 08:25:48;;;;;;;1.07;0.97;;;;;;;;;;4917963;29;20235;-93
2022/01/08 08:28:16;;;;;;;2.23;1.50;;;;;;;;;;4917960;29;20656;-93
2022/01/08 08:30:44;;;;;;;1.20;1.10;;;;;;;;;;4917531;29;20206;-93
2022/01/08 08:33:12;;;;;;;1.37;1.13;;;;;;;;;;4900069;29;20207;-93
2022/01/08 08:35:40;;;;;;;1.30;1.20;;;;;;;;;;4928284;29;20223;-92
2022/01/08 08:38:09;;;;;;;1.03;0.93;;;;;;;;;;4918248;29;20210;-93
2022/01/08 08:40:36;;;;;;;1.40;1.30;;;;;;;;;;4918261;29;20221;-92
2022/01/08 08:43:04;;;;;;;1.20;1.10;;;;;;;;;;4918270;29;20283;-93
2022/01/08 08:45:31;;;;;;;1.17;1.07;;;;;;;;;;4918601;29;20237;-92
2022/01/08 08:48:00;;;;;;;1.13;1.03;;;;;;;;;;4918257;29;20225;-92
2022/01/08 08:50:27;;;;;;;3.80;1.70;;;;;;;;;;4918723;29;20226;-92
2022/01/08 08:52:55;;;;;;;3.00;1.40;;;;;;;;;;4919349;29;20214;-92
2022/01/08 08:55:23;;;;;;;1.43;1.20;;;;;;;;;;4918899;29;20246;-92
2022/01/08 08:57:50;;;;;;;3.17;1.27;;;;;;;;;;4918577;29;20214;-93
2022/01/08 09:00:19;;;;;;;1.50;1.00;;;;;;;;;;4917670;29;20227;-92
2022/01/08 09:02:48;;;;;;;1.97;1.10;;;;;;;;;;4918433;29;20707;-92
2022/01/08 09:05:17;;;;;;;3.10;1.40;;;;;;;;;;4917549;29;20330;-93
2022/01/08 09:07:45;;;;;;;2.77;1.10;;;;;;;;;;4918870;29;20637;-94
2022/01/08 09:10:13;;;;;;;1.27;1.17;;;;;;;;;;4915907;29;20217;-93
2022/01/08 09:12:41;;;;;;;1.17;1.13;;;;;;;;;;4916576;29;20262;-90
2022/01/08 09:15:10;;;;;;;3.67;1.80;;;;;;;;;;4917129;29;20238;-93
2022/01/08 09:17:40;;;;;;;2.17;1.40;;;;;;;;;;4918038;29;20254;-94
2022/01/08 09:20:08;;;;;;;4.67;2.00;;;;;;;;;;4918220;29;20210;-93
2022/01/08 09:22:37;;;;;;;3.07;1.63;;;;;;;;;;4917220;29;20227;-93
2022/01/08 09:25:05;;;;;;;2.63;1.43;;;;;;;;;;4918041;29;20218;-94
2022/01/08 09:27:33;;;;;;;1.97;1.37;;;;;;;;;;4917462;29;20230;-93
2022/01/08 09:30:00;;;;;;;3.80;1.80;;;;;;;;;;4917601;29;20210;-93
2022/01/08 09:32:28;;;;;;;1.77;1.53;;;;;;;;;;4913087;29;20207;-93
2022/01/08 09:34:55;;;;;;;2.73;1.90;;;;;;;;;;4918398;29;20235;-93
2022/01/08 09:37:23;;;;;;;6.27;1.80;;;;;;;;;;4917852;29;20206;-93
2022/01/08 09:39:52;;;;;;;5.00;2.33;;;;;;;;;;4935797;29;20206;-93
2022/01/08 09:42:19;;;;;;;1.73;1.10;;;;;;;;;;4913559;29;20687;-93
2022/01/08 09:44:47;;;;;;;1.27;1.20;;;;;;;;;;4916872;29;20246;-94
2022/01/08 09:47:14;;;;;;;1.70;1.20;;;;;;;;;;4917014;29;20215;-94
2022/01/08 09:49:42;;;;;;;3.80;1.47;;;;;;;;;;4913714;29;20219;-92
2022/01/08 09:52:10;;;;;;;1.20;1.00;;;;;;;;;;4917352;29;20211;-93
2022/01/08 09:54:37;;;;;;;1.33;1.23;;;;;;;;;;4918015;29;20290;-93
2022/01/08 09:57:06;;;;;;;4.70;1.70;;;;;;;;;;4914270;29;20222;-93
2022/01/08 09:59:34;;;;;;;1.47;1.10;;;;;;;;;;4913643;29;20218;-93
2022/01/08 10:02:02;;;;;;;1.30;1.20;;;;;;;;;;4913878;29;20210;-93
2022/01/08 10:04:30;;;;;;;2.53;1.20;;;;;;;;;;4914496;29;20238;-92
2022/01/08 10:07:13;;;;;;;2.37;1.37;;;;;;;;;;4913854;29;20210;-93
2022/01/08 10:09:40;;;;;;;1.30;1.10;;;;;;;;;;4914421;29;20217;-94
2022/01/08 10:12:09;;;;;;;2.60;1.00;;;;;;;;;;4914369;29;20210;-93
2022/01/08 10:17:13;;;;;;;1.97;1.30;;;;;;;;;;4913876;29;20226;-93
2022/01/08 10:17:38;;;;;;;1.50;1.00;;;;;;;;;;4913608;29;20198;-92
2022/01/08 10:20:06;;;;;;;0.90;0.90;;;;;;;;;;4913660;29;20206;-93
2022/01/08 10:22:33;;;;;;;1.40;1.23;;;;;;;;;;4914162;29;20266;-93
2022/01/08 10:25:10;;;;;;;1.43;1.10;;;;;;;;;;4912742;29;20279;-93
2022/01/08 10:27:39;;;;;;;2.20;1.40;;;;;;;;;;4917085;29;20226;-92
2022/01/08 10:30:08;;;;;;;3.57;1.20;;;;;;;;;;4916861;29;20214;-94
2022/01/08 10:32:35;;;;;;;3.13;2.30;;;;;;;;;;4916504;29;20215;-92
2022/01/08 10:35:03;;;;;;;23.20;11.23;;;;;;;;;;4916202;29;20222;-92
2022/01/08 10:37:30;;;;;;;1.77;1.43;;;;;;;;;;4916887;29;20207;-92
2022/01/08 10:39:58;;;;;;;3.53;2.03;;;;;;;;;;4916565;29;20210;-91
2022/01/08 10:42:25;;;;;;;2.67;2.00;;;;;;;;;;4916895;29;20213;-93
2022/01/08 10:44:54;;;;;;;4.23;2.27;;;;;;;;;;4915999;29;20655;-92
2022/01/08 10:47:22;;;;;;;3.63;1.60;;;;;;;;;;4915798;29;20206;-92
2022/01/08 10:49:50;;;;;;;1.53;1.00;;;;;;;;;;4916601;29;20229;-92
2022/01/08 10:52:19;;;;;;;1.10;1.00;;;;;;;;;;4915821;29;20218;-92
2022/01/08 10:54:47;;;;;;;2.07;0.90;;;;;;;;;;4915964;29;20226;-92
2022/01/08 10:57:14;;;;;;;2.23;1.23;;;;;;;;;;4916436;29;20206;-92
2022/01/08 10:59:42;;;;;;;1.53;1.00;;;;;;;;;;4918446;29;20214;-93
2022/01/08 11:02:11;;;;;;;1.30;0.93;;;;;;;;;;4919582;29;20203;-92
2022/01/08 11:04:45;;;;;;;3.07;1.20;;;;;;;;;;4927344;29;20263;-92
2022/01/08 11:07:13;;;;;;;0.77;0.70;;;;;;;;;;4920103;29;20213;-92
2022/01/08 11:09:41;;;;;;;2.17;0.87;;;;;;;;;;4919372;29;20258;-92
2022/01/08 11:12:11;;;;;;;1.60;1.00;;;;;;;;;;4919705;29;20210;-92
2022/01/08 11:17:38;;;;;;;3.97;1.67;;;;;;;;;;4911913;29;20199;-91
2022/01/08 11:20:08;;;;;;;1.80;0.77;;;;;;;;;;4918831;29;20213;-92
2022/01/08 11:22:36;;;;;;;2.13;1.00;;;;;;;;;;4919342;29;20199;-92
2022/01/08 11:25:06;;;;;;;0.93;0.60;;;;;;;;;;4919356;29;20692;-92
2022/01/08 11:27:36;;;;;;;0.67;0.67;;;;;;;;;;4918677;29;20234;-92
2022/01/08 11:30:09;;;;;;;3.53;1.10;;;;;;;;;;4919766;29;20202;-91
2022/01/08 11:32:38;;;;;;;5.10;1.13;;;;;;;;;;4919202;29;20211;-91
2022/01/08 11:35:07;;;;;;;2.13;0.90;;;;;;;;;;4918631;29;20214;-91
2022/01/08 11:37:35;;;;;;;1.90;0.73;;;;;;;;;;4919419;29;20215;-93
2022/01/08 11:40:04;;;;;;;3.03;0.90;;;;;;;;;;4918939;29;20639;-92
2022/01/08 11:42:34;;;;;;;0.90;0.67;;;;;;;;;;4919484;29;20215;-92
2022/01/08 11:45:02;;;;;;;3.17;0.90;;;;;;;;;;4918476;29;20633;-93
2022/01/08 11:47:30;;;;;;;1.20;1.00;;;;;;;;;;4919225;29;20221;-92
2022/01/08 11:50:00;;;;;;;2.47;1.13;;;;;;;;;;4918724;29;20630;-92
2022/01/08 11:52:27;;;;;;;1.33;0.90;;;;;;;;;;4911000;29;20212;-92
2022/01/08 11:54:55;;;;;;;3.37;1.00;;;;;;;;;;4916173;29;20278;-92
2022/01/08 11:57:23;;;;;;;4.10;1.30;;;;;;;;;;4916321;29;20207;-91
2022/01/08 11:59:56;;;;;;;4.00;1.20;;;;;;;;;;4916585;29;20214;-92
2022/01/08 12:02:23;;;;;;;2.30;0.97;;;;;;;;;;4910972;29;20683;-91
2022/01/08 12:04:53;;;;;;;1.50;1.40;;;;;;;;;;4915499;29;20283;-91
2022/01/08 12:07:35;;;;;;;1.00;0.90;;;;;;;;;;4916134;29;20210;-92
2022/01/08 12:10:10;;;;;;;3.40;0.90;;;;;;;;;;4913434;29;20213;-92
2022/01/08 12:13:01;;;;;;;2.53;0.87;;;;;;;;;;4916006;29;20576;-92
2022/01/08 12:15:49;;;;;;;2.37;0.90;;;;;;;;;;4906323;29;20234;-92
2022/01/08 12:18:17;;;;;;;2.37;1.23;;;;;;;;;;4915959;29;20532;-92
2022/01/08 12:20:46;;;;;;;2.60;1.00;;;;;;;;;;4909134;29;20562;-92
2022/01/08 12:23:31;;;;;;;1.50;0.90;;;;;;;;;;4915798;29;20387;-91
2022/01/08 12:25:59;;;;;;;4.63;1.23;;;;;;;;;;4916621;29;20309;-92
2022/01/08 12:28:45;;;;;;;2.80;1.00;;;;;;;;;;4916090;29;20206;-93
2022/01/08 12:31:28;;;;;;;1.73;1.00;;;;;;;;;;4914364;29;20205;-91
2022/01/08 12:34:16;;;;;;;0.80;0.70;;;;;;;;;;4915305;29;20690;-93
2022/01/08 12:36:51;;;;;;;2.30;1.10;;;;;;;;;;4916538;29;20203;-91
2022/01/08 12:39:24;;;;;;;1.17;0.67;;;;;;;;;;4915479;29;20233;-92
2022/01/08 12:41:51;;;;;;;1.43;0.97;;;;;;;;;;4915950;29;20645;-91
2022/01/08 12:44:36;;;;;;;2.63;0.97;;;;;;;;;;4914966;29;20239;-91
2022/01/08 12:47:04;;;;;;;1.93;1.10;;;;;;;;;;4913923;29;20217;-91
2022/01/08 12:49:33;;;;;;;2.30;0.77;;;;;;;;;;4913766;29;20660;-91
2022/01/08 12:52:07;;;;;;;2.50;0.90;;;;;;;;;;4912014;29;20259;-92
2022/01/08 12:54:36;;;;;;;0.80;0.80;;;;;;;;;;4918052;29;20218;-92
2022/01/08 12:57:05;;;;;;;1.70;0.90;;;;;;;;;;4918072;29;20719;-91
2022/01/08 12:59:34;;;;;;;0.70;0.70;;;;;;;;;;4917750;29;20207;-91
2022/01/08 13:02:01;;;;;;;1.00;0.90;;;;;;;;;;4918353;29;20345;-92
2022/01/08 13:04:29;;;;;;;1.00;0.80;;;;;;;;;;4917598;29;20227;-91
2022/01/08 13:06:56;;;;;;;3.33;0.97;;;;;;;;;;4918123;29;20211;-92
2022/01/08 13:09:24;;;;;;;0.77;0.77;;;;;;;;;;4911518;29;20211;-90
2022/01/08 13:11:53;;;;;;;2.03;0.90;;;;;;;;;;4916814;29;20788;-91
2022/01/08 13:14:21;;;;;;;2.00;0.80;;;;;;;;;;4917172;29;20226;-92
2022/01/08 13:16:50;;;;;;;3.70;1.10;;;;;;;;;;4910370;29;20220;-92
2022/01/08 13:19:18;;;;;;;1.93;0.80;;;;;;;;;;4915135;29;20242;-91
2022/01/08 13:21:48;;;;;;;2.30;0.83;;;;;;;;;;4911508;29;20220;-91
2022/01/08 13:24:17;;;;;;;1.53;1.20;;;;;;;;;;4916911;29;20234;-91
2022/01/08 13:26:45;;;;;;;1.03;1.03;;;;;;;;;;4917912;29;20210;-91
2022/01/08 13:29:22;;;;;;;1.53;1.17;;;;;;;;;;4917942;29;20220;-93
2022/01/08 13:31:50;;;;;;;2.67;0.93;;;;;;;;;;4917263;29;20214;-91
2022/01/08 13:34:18;;;;;;;2.50;1.07;;;;;;;;;;4917292;29;20203;-91
2022/01/08 13:36:53;;;;;;;0.87;0.70;;;;;;;;;;4917414;29;20262;-91
2022/01/08 13:39:26;;;;;;;1.43;0.83;;;;;;;;;;4916740;29;20206;-91
2022/01/08 13:42:04;;;;;;;1.90;0.93;;;;;;;;;;4904534;29;20773;-91
2022/01/08 13:44:33;;;;;;;1.33;0.80;;;;;;;;;;4917227;29;20230;-91
2022/01/08 13:47:00;;;;;;;1.87;1.30;;;;;;;;;;4916787;29;20238;-92
2022/01/08 13:49:28;;;;;;;1.00;0.90;;;;;;;;;;4902900;29;20216;-91
2022/01/08 13:51:56;;;;;;;1.73;0.70;;;;;;;;;;4909992;29;20218;-91
2022/01/08 13:54:34;;;;;;;6.53;1.10;;;;;;;;;;4917024;29;20313;-91
2022/01/08 13:57:11;;;;;;;1.43;0.90;;;;;;;;;;4917296;29;20214;-92
2022/01/08 13:59:40;;;;;;;3.07;0.90;;;;;;;;;;4899704;29;20415;-91
2022/01/08 14:02:08;;;;;;;1.47;1.10;;;;;;;;;;4917064;29;20219;-91
2022/01/08 14:04:36;;;;;;;3.03;1.07;;;;;;;;;;4916773;29;20234;-91
2022/01/08 14:07:03;;;;;;;1.30;0.97;;;;;;;;;;4916984;29;20657;-92
2022/01/08 14:09:32;;;;;;;2.73;1.10;;;;;;;;;;4916966;29;20274;-91
2022/01/08 14:12:15;;;;;;;0.80;0.80;;;;;;;;;;4917083;29;20446;-91
2022/01/08 14:14:50;;;;;;;1.17;0.80;;;;;;;;;;4919768;29;20274;-91
2022/01/08 14:17:19;;;;;;;0.80;0.80;;;;;;;;;;4918694;29;20206;-91
2022/01/08 14:19:47;;;;;;;1.60;0.80;;;;;;;;;;4916969;29;20206;-91
2022/01/08 14:22:22;;;;;;;2.30;0.90;;;;;;;;;;4917568;29;20767;-91
2022/01/08 14:24:51;;;;;;;1.57;1.10;;;;;;;;;;4917394;29;20256;-91
2022/01/08 14:27:20;;;;;;;3.00;1.33;;;;;;;;;;4917702;29;20202;-92
2022/01/08 14:29:50;;;;;;;0.90;0.90;;;;;;;;;;4917381;29;20210;-91
2022/01/08 14:32:18;;;;;;;2.20;1.23;;;;;;;;;;4917084;29;20207;-91
2022/01/08 14:34:46;;;;;;;1.80;1.70;;;;;;;;;;4921165;29;20229;-91
2022/01/08 14:37:16;;;;;;;1.10;1.00;;;;;;;;;;4921358;29;20210;-91
2022/01/08 14:39:46;;;;;;;4.60;1.97;;;;;;;;;;4921337;29;20206;-91
2022/01/08 14:42:14;;;;;;;2.60;1.57;;;;;;;;;;4921381;29;20652;-91
2022/01/08 14:44:43;;;;;;;3.33;1.57;;;;;;;;;;4919981;29;20241;-91
2022/01/08 14:47:12;;;;;;;1.40;1.30;;;;;;;;;;4920057;29;20672;-91
2022/01/08 14:49:39;;;;;;;4.33;1.80;;;;;;;;;;4920967;29;20296;-91
2022/01/08 14:52:07;;;;;;;2.87;1.50;;;;;;;;;;4920776;29;20202;-91
2022/01/08 14:54:35;;;;;;;4.77;1.40;;;;;;;;;;4919866;29;20226;-91
2022/01/08 14:57:03;;;;;;;3.73;1.43;;;;;;;;;;4917491;29;20211;-92
2022/01/08 14:59:31;;;;;;;2.87;1.60;;;;;;;;;;4917678;29;20302;-92
2022/01/08 15:01:59;;;;;;;3.10;1.90;;;;;;;;;;4917254;29;20203;-92
2022/01/08 15:04:28;;;;;;;5.13;1.83;;;;;;;;;;4917253;29;20238;-91
2022/01/08 15:06:55;;;;;;;2.93;2.13;;;;;;;;;;4917355;29;20211;-92
2022/01/08 15:09:25;;;;;;;3.07;2.30;;;;;;;;;;4917424;29;20606;-92
2022/01/08 15:11:52;;;;;;;4.13;2.50;;;;;;;;;;4917398;29;20218;-92
2022/01/08 15:14:20;;;;;;;3.30;2.57;;;;;;;;;;4917166;29;20309;-91